sensor_id;sensor_type;location;lat;lon;timestamp;temperature;humidity
17178;DHT22;8704;52.006;4.374;2023-07-13T00:00:06;18.70;1.00
17178;DHT22;8704;52.006;4.374;2023-07-13T00:02:38;18.70;1.00
17178;DHT22;8704;52.006;4.374;2023-07-13T00:05:07;18.70;1.00
17178;DHT22;8704;52.006;4.374;2023-07-13T00:07:35;18.70;1.00
17178;DHT22;8704;52.006;4.374;2023-07-13T00:10:05;18.70;1.00
17178;DHT22;8704;52.006;4.374;2023-07-13T00:12:36;18.70;1.00
17178;DHT22;8704;52.006;4.374;2023-07-13T00:15:09;18.70;1.00
17178;DHT22;8704;52.006;4.374;2023-07-13T00:17:39;18.70;1.00
17178;DHT22;8704;52.006;4.374;2023-07-13T00:20:09;18.70;1.00
17178;DHT22;8704;52.006;4.374;2023-07-13T00:22:37;18.70;1.00
17178;DHT22;8704;52.006;4.374;2023-07-13T00:25:06;18.70;1.00
17178;DHT22;8704;52.006;4.374;2023-07-13T00:27:34;18.60;1.00
17178;DHT22;8704;52.006;4.374;2023-07-13T00:30:03;18.60;1.00
17178;DHT22;8704;52.006;4.374;2023-07-13T00:32:32;18.60;1.00
17178;DHT22;8704;52.006;4.374;2023-07-13T00:35:02;18.60;1.00
17178;DHT22;8704;52.006;4.374;2023-07-13T00:37:31;18.60;1.00
17178;DHT22;8704;52.006;4.374;2023-07-13T00:40:00;18.50;1.00
17178;DHT22;8704;52.006;4.374;2023-07-13T00:42:28;18.50;1.00
17178;DHT22;8704;52.006;4.374;2023-07-13T00:46:07;18.50;1.00
17178;DHT22;8704;52.006;4.374;2023-07-13T00:47:57;18.50;1.00
17178;DHT22;8704;52.006;4.374;2023-07-13T00:50:27;18.40;1.00
17178;DHT22;8704;52.006;4.374;2023-07-13T00:52:56;18.40;1.00
17178;DHT22;8704;52.006;4.374;2023-07-13T00:55:25;18.30;1.00
17178;DHT22;8704;52.006;4.374;2023-07-13T00:57:53;18.30;1.00
17178;DHT22;8704;52.006;4.374;2023-07-13T01:00:22;18.20;1.00
17178;DHT22;8704;52.006;4.374;2023-07-13T01:02:50;18.20;1.00
17178;DHT22;8704;52.006;4.374;2023-07-13T01:05:21;18.20;1.00
17178;DHT22;8704;52.006;4.374;2023-07-13T01:07:52;18.10;1.00
17178;DHT22;8704;52.006;4.374;2023-07-13T01:10:22;18.10;1.00
17178;DHT22;8704;52.006;4.374;2023-07-13T01:12:50;18.00;1.00
17178;DHT22;8704;52.006;4.374;2023-07-13T01:15:36;18.00;1.00
17178;DHT22;8704;52.006;4.374;2023-07-13T01:18:06;17.90;1.00
17178;DHT22;8704;52.006;4.374;2023-07-13T01:20:35;17.90;1.00
17178;DHT22;8704;52.006;4.374;2023-07-13T01:23:08;17.90;1.00
17178;DHT22;8704;52.006;4.374;2023-07-13T01:25:36;17.80;1.00
17178;DHT22;8704;52.006;4.374;2023-07-13T01:28:06;17.80;1.00
17178;DHT22;8704;52.006;4.374;2023-07-13T01:30:35;17.80;1.00
17178;DHT22;8704;52.006;4.374;2023-07-13T01:33:05;17.80;1.00
17178;DHT22;8704;52.006;4.374;2023-07-13T01:35:34;17.70;1.00
17178;DHT22;8704;52.006;4.374;2023-07-13T01:38:02;17.60;1.00
17178;DHT22;8704;52.006;4.374;2023-07-13T01:40:32;17.60;1.00
17178;DHT22;8704;52.006;4.374;2023-07-13T01:43:00;17.60;1.00
17178;DHT22;8704;52.006;4.374;2023-07-13T01:45:28;17.60;1.00
17178;DHT22;8704;52.006;4.374;2023-07-13T01:47:57;17.50;1.00
17178;DHT22;8704;52.006;4.374;2023-07-13T01:50:25;17.50;1.00
17178;DHT22;8704;52.006;4.374;2023-07-13T01:52:54;18.30;1.00
17178;DHT22;8704;52.006;4.374;2023-07-13T01:55:22;17.40;1.00
17178;DHT22;8704;52.006;4.374;2023-07-13T01:57:52;17.40;1.00
17178;DHT22;8704;52.006;4.374;2023-07-13T02:00:20;17.30;1.00
17178;DHT22;8704;52.006;4.374;2023-07-13T02:02:48;17.20;1.00
17178;DHT22;8704;52.006;4.374;2023-07-13T02:05:17;17.30;1.00
17178;DHT22;8704;52.006;4.374;2023-07-13T02:07:45;17.30;1.00
17178;DHT22;8704;52.006;4.374;2023-07-13T02:10:13;17.20;1.00
17178;DHT22;8704;52.006;4.374;2023-07-13T02:12:42;17.20;1.00
17178;DHT22;8704;52.006;4.374;2023-07-13T02:15:12;17.20;1.00
17178;DHT22;8704;52.006;4.374;2023-07-13T02:17:40;17.20;1.00
17178;DHT22;8704;52.006;4.374;2023-07-13T02:20:09;17.20;1.00
17178;DHT22;8704;52.006;4.374;2023-07-13T02:22:37;17.10;1.00
17178;DHT22;8704;52.006;4.374;2023-07-13T02:25:06;17.10;1.00
17178;DHT22;8704;52.006;4.374;2023-07-13T02:27:34;17.10;1.00
17178;DHT22;8704;52.006;4.374;2023-07-13T02:30:02;17.00;1.00
17178;DHT22;8704;52.006;4.374;2023-07-13T02:32:32;17.00;1.00
17178;DHT22;8704;52.006;4.374;2023-07-13T02:35:01;17.00;1.00
17178;DHT22;8704;52.006;4.374;2023-07-13T02:37:29;17.00;1.00
17178;DHT22;8704;52.006;4.374;2023-07-13T02:39:58;17.00;1.00
17178;DHT22;8704;52.006;4.374;2023-07-13T02:42:26;17.00;1.00
17178;DHT22;8704;52.006;4.374;2023-07-13T02:44:54;17.00;1.00
17178;DHT22;8704;52.006;4.374;2023-07-13T02:47:22;16.90;1.00
17178;DHT22;8704;52.006;4.374;2023-07-13T02:49:52;16.90;1.00
17178;DHT22;8704;52.006;4.374;2023-07-13T02:52:20;16.80;1.00
17178;DHT22;8704;52.006;4.374;2023-07-13T02:54:49;16.80;1.00
17178;DHT22;8704;52.006;4.374;2023-07-13T02:57:17;16.80;1.00
17178;DHT22;8704;52.006;4.374;2023-07-13T02:59:45;16.80;1.00
17178;DHT22;8704;52.006;4.374;2023-07-13T03:02:13;16.80;1.00
17178;DHT22;8704;52.006;4.374;2023-07-13T03:04:41;16.80;1.00
17178;DHT22;8704;52.006;4.374;2023-07-13T03:07:11;16.80;1.00
17178;DHT22;8704;52.006;4.374;2023-07-13T03:09:40;16.80;1.00
17178;DHT22;8704;52.006;4.374;2023-07-13T03:12:08;16.80;3.60
17178;DHT22;8704;52.006;4.374;2023-07-13T03:14:37;16.80;18.80
17178;DHT22;8704;52.006;4.374;2023-07-13T03:17:05;16.80;19.20
17178;DHT22;8704;52.006;4.374;2023-07-13T03:19:33;16.80;22.90
17178;DHT22;8704;52.006;4.374;2023-07-13T03:22:01;16.80;38.90
17178;DHT22;8704;52.006;4.374;2023-07-13T03:24:32;16.80;47.40
17178;DHT22;8704;52.006;4.374;2023-07-13T03:27:04;16.80;55.30
17178;DHT22;8704;52.006;4.374;2023-07-13T03:29:33;16.70;67.20
17178;DHT22;8704;52.006;4.374;2023-07-13T03:32:01;16.70;79.20
17178;DHT22;8704;52.006;4.374;2023-07-13T03:34:31;16.70;85.20
17178;DHT22;8704;52.006;4.374;2023-07-13T03:36:59;16.70;96.90
17178;DHT22;8704;52.006;4.374;2023-07-13T03:39:27;16.70;99.30
17178;DHT22;8704;52.006;4.374;2023-07-13T03:41:57;16.70;99.90
17178;DHT22;8704;52.006;4.374;2023-07-13T03:44:25;16.70;99.90
17178;DHT22;8704;52.006;4.374;2023-07-13T03:46:53;16.70;99.90
17178;DHT22;8704;52.006;4.374;2023-07-13T03:49:21;16.70;99.90
17178;DHT22;8704;52.006;4.374;2023-07-13T03:51:50;16.70;99.90
17178;DHT22;8704;52.006;4.374;2023-07-13T03:54:20;16.70;99.90
17178;DHT22;8704;52.006;4.374;2023-07-13T03:56:48;16.70;99.90
17178;DHT22;8704;52.006;4.374;2023-07-13T03:59:18;16.80;99.90
17178;DHT22;8704;52.006;4.374;2023-07-13T04:01:46;16.80;99.90
17178;DHT22;8704;52.006;4.374;2023-07-13T04:04:14;16.80;99.90
17178;DHT22;8704;52.006;4.374;2023-07-13T04:06:43;16.80;99.90
17178;DHT22;8704;52.006;4.374;2023-07-13T04:09:11;16.80;99.90
17178;DHT22;8704;52.006;4.374;2023-07-13T04:11:39;16.80;99.90
17178;DHT22;8704;52.006;4.374;2023-07-13T04:14:07;16.90;99.90
17178;DHT22;8704;52.006;4.374;2023-07-13T04:16:37;16.90;99.90
17178;DHT22;8704;52.006;4.374;2023-07-13T04:19:05;16.90;99.90
17178;DHT22;8704;52.006;4.374;2023-07-13T04:21:33;17.00;99.90
17178;DHT22;8704;52.006;4.374;2023-07-13T04:24:01;17.00;99.90
17178;DHT22;8704;52.006;4.374;2023-07-13T04:26:30;17.00;99.90
17178;DHT22;8704;52.006;4.374;2023-07-13T04:28:58;17.10;99.90
17178;DHT22;8704;52.006;4.374;2023-07-13T04:31:26;17.20;99.90
17178;DHT22;8704;52.006;4.374;2023-07-13T04:33:57;17.20;99.90
17178;DHT22;8704;52.006;4.374;2023-07-13T04:36:25;17.20;97.20
17178;DHT22;8704;52.006;4.374;2023-07-13T04:38:54;17.20;56.80
17178;DHT22;8704;52.006;4.374;2023-07-13T04:41:22;17.30;79.50
17178;DHT22;8704;52.006;4.374;2023-07-13T04:43:51;17.40;52.00
17178;DHT22;8704;52.006;4.374;2023-07-13T04:46:22;17.40;27.90
17178;DHT22;8704;52.006;4.374;2023-07-13T04:48:51;17.50;29.00
17178;DHT22;8704;52.006;4.374;2023-07-13T04:51:21;17.50;17.40
17178;DHT22;8704;52.006;4.374;2023-07-13T04:53:50;17.50;8.40
17178;DHT22;8704;52.006;4.374;2023-07-13T04:56:25;17.60;35.70
17178;DHT22;8704;52.006;4.374;2023-07-13T04:58:54;17.60;19.60
17178;DHT22;8704;52.006;4.374;2023-07-13T05:01:22;17.60;11.00
17178;DHT22;8704;52.006;4.374;2023-07-13T05:03:51;17.60;1.00
17178;DHT22;8704;52.006;4.374;2023-07-13T05:06:21;17.70;1.00
17178;DHT22;8704;52.006;4.374;2023-07-13T05:08:49;17.80;12.30
17178;DHT22;8704;52.006;4.374;2023-07-13T05:11:18;17.80;11.60
17178;DHT22;8704;52.006;4.374;2023-07-13T05:13:46;17.80;1.00
17178;DHT22;8704;52.006;4.374;2023-07-13T05:16:14;17.80;1.00
17178;DHT22;8704;52.006;4.374;2023-07-13T05:18:42;17.80;1.00
17178;DHT22;8704;52.006;4.374;2023-07-13T05:21:11;17.90;1.00
17178;DHT22;8704;52.006;4.374;2023-07-13T05:23:41;17.90;1.00
17178;DHT22;8704;52.006;4.374;2023-07-13T05:26:10;18.00;1.00
17178;DHT22;8704;52.006;4.374;2023-07-13T05:28:38;18.00;1.00
17178;DHT22;8704;52.006;4.374;2023-07-13T05:31:07;18.10;1.00
17178;DHT22;8704;52.006;4.374;2023-07-13T05:33:36;18.10;1.00
17178;DHT22;8704;52.006;4.374;2023-07-13T05:36:04;18.10;1.00
17178;DHT22;8704;52.006;4.374;2023-07-13T05:38:33;18.20;1.00
17178;DHT22;8704;52.006;4.374;2023-07-13T05:41:03;18.20;1.00
17178;DHT22;8704;52.006;4.374;2023-07-13T05:43:32;18.20;1.00
17178;DHT22;8704;52.006;4.374;2023-07-13T05:46:00;18.30;1.00
17178;DHT22;8704;52.006;4.374;2023-07-13T05:48:29;18.30;1.00
17178;DHT22;8704;52.006;4.374;2023-07-13T05:50:57;18.30;1.00
17178;DHT22;8704;52.006;4.374;2023-07-13T05:53:25;18.40;1.00
17178;DHT22;8704;52.006;4.374;2023-07-13T05:55:54;18.40;1.00
17178;DHT22;8704;52.006;4.374;2023-07-13T05:58:26;18.40;1.00
17178;DHT22;8704;52.006;4.374;2023-07-13T06:00:59;18.50;1.00
17178;DHT22;8704;52.006;4.374;2023-07-13T06:03:29;18.50;1.00
17178;DHT22;8704;52.006;4.374;2023-07-13T06:05:57;18.50;1.00
17178;DHT22;8704;52.006;4.374;2023-07-13T06:08:27;18.60;1.00
17178;DHT22;8704;52.006;4.374;2023-07-13T06:11:02;18.60;1.00
17178;DHT22;8704;52.006;4.374;2023-07-13T06:13:31;18.70;1.00
17178;DHT22;8704;52.006;4.374;2023-07-13T06:16:00;18.70;1.00
17178;DHT22;8704;52.006;4.374;2023-07-13T06:18:31;18.70;1.00
17178;DHT22;8704;52.006;4.374;2023-07-13T06:21:00;18.70;1.00
17178;DHT22;8704;52.006;4.374;2023-07-13T06:23:28;18.80;1.00
17178;DHT22;8704;52.006;4.374;2023-07-13T06:25:56;18.70;1.00
17178;DHT22;8704;52.006;4.374;2023-07-13T06:28:25;18.70;1.00
17178;DHT22;8704;52.006;4.374;2023-07-13T06:30:54;18.80;1.00
17178;DHT22;8704;52.006;4.374;2023-07-13T06:33:22;18.90;1.00
17178;DHT22;8704;52.006;4.374;2023-07-13T06:35:51;18.90;1.00
17178;DHT22;8704;52.006;4.374;2023-07-13T06:38:19;19.00;1.00
17178;DHT22;8704;52.006;4.374;2023-07-13T06:40:47;19.00;1.00
17178;DHT22;8704;52.006;4.374;2023-07-13T06:43:15;19.10;1.00
17178;DHT22;8704;52.006;4.374;2023-07-13T06:45:45;19.10;1.00
17178;DHT22;8704;52.006;4.374;2023-07-13T06:48:18;19.10;1.00
17178;DHT22;8704;52.006;4.374;2023-07-13T06:50:49;19.20;1.00
17178;DHT22;8704;52.006;4.374;2023-07-13T06:53:18;19.30;1.00
17178;DHT22;8704;52.006;4.374;2023-07-13T06:55:47;19.30;1.00
17178;DHT22;8704;52.006;4.374;2023-07-13T06:58:17;19.30;1.00
17178;DHT22;8704;52.006;4.374;2023-07-13T07:00:46;19.30;1.00
17178;DHT22;8704;52.006;4.374;2023-07-13T07:03:14;19.40;1.00
17178;DHT22;8704;52.006;4.374;2023-07-13T07:05:44;19.40;1.00
17178;DHT22;8704;52.006;4.374;2023-07-13T07:08:12;19.40;1.00
17178;DHT22;8704;52.006;4.374;2023-07-13T07:10:42;19.50;1.00
17178;DHT22;8704;52.006;4.374;2023-07-13T07:13:10;19.40;1.00
17178;DHT22;8704;52.006;4.374;2023-07-13T07:15:38;19.50;1.00
17178;DHT22;8704;52.006;4.374;2023-07-13T07:18:06;19.50;1.00
17178;DHT22;8704;52.006;4.374;2023-07-13T07:20:35;19.50;1.00
17178;DHT22;8704;52.006;4.374;2023-07-13T07:23:04;19.60;1.00
17178;DHT22;8704;52.006;4.374;2023-07-13T07:25:32;19.70;1.00
17178;DHT22;8704;52.006;4.374;2023-07-13T07:28:03;19.80;1.00
17178;DHT22;8704;52.006;4.374;2023-07-13T07:30:35;19.80;1.00
17178;DHT22;8704;52.006;4.374;2023-07-13T07:33:06;19.80;1.00
17178;DHT22;8704;52.006;4.374;2023-07-13T07:35:34;19.90;1.00
17178;DHT22;8704;52.006;4.374;2023-07-13T07:38:23;20.00;1.00
17178;DHT22;8704;52.006;4.374;2023-07-13T07:40:53;20.00;1.00
17178;DHT22;8704;52.006;4.374;2023-07-13T07:43:24;20.10;1.00
17178;DHT22;8704;52.006;4.374;2023-07-13T07:45:52;20.10;1.00
17178;DHT22;8704;52.006;4.374;2023-07-13T07:48:20;20.20;1.00
17178;DHT22;8704;52.006;4.374;2023-07-13T07:50:49;20.20;1.00
17178;DHT22;8704;52.006;4.374;2023-07-13T07:53:17;20.30;1.00
17178;DHT22;8704;52.006;4.374;2023-07-13T07:55:46;20.30;1.00
17178;DHT22;8704;52.006;4.374;2023-07-13T07:58:18;20.40;1.00
17178;DHT22;8704;52.006;4.374;2023-07-13T08:00:49;20.40;1.00
17178;DHT22;8704;52.006;4.374;2023-07-13T08:03:20;20.40;1.00
17178;DHT22;8704;52.006;4.374;2023-07-13T08:05:52;20.40;1.00
17178;DHT22;8704;52.006;4.374;2023-07-13T08:08:40;20.30;1.00
17178;DHT22;8704;52.006;4.374;2023-07-13T08:11:10;20.30;1.00
17178;DHT22;8704;52.006;4.374;2023-07-13T08:13:41;20.20;1.00
17178;DHT22;8704;52.006;4.374;2023-07-13T08:16:09;20.30;1.00
17178;DHT22;8704;52.006;4.374;2023-07-13T08:18:38;20.20;1.00
17178;DHT22;8704;52.006;4.374;2023-07-13T08:21:08;20.20;1.00
17178;DHT22;8704;52.006;4.374;2023-07-13T08:23:36;20.30;1.00
17178;DHT22;8704;52.006;4.374;2023-07-13T08:26:05;20.40;1.00
17178;DHT22;8704;52.006;4.374;2023-07-13T08:28:35;20.40;1.00
17178;DHT22;8704;52.006;4.374;2023-07-13T08:31:03;20.40;1.00
17178;DHT22;8704;52.006;4.374;2023-07-13T08:33:33;20.30;1.00
17178;DHT22;8704;52.006;4.374;2023-07-13T08:36:02;20.20;1.00
17178;DHT22;8704;52.006;4.374;2023-07-13T08:38:30;20.30;1.00
17178;DHT22;8704;52.006;4.374;2023-07-13T08:40:58;20.20;1.00
17178;DHT22;8704;52.006;4.374;2023-07-13T08:43:29;20.30;1.00
17178;DHT22;8704;52.006;4.374;2023-07-13T08:46:02;20.30;1.00
17178;DHT22;8704;52.006;4.374;2023-07-13T08:48:36;20.40;1.00
17178;DHT22;8704;52.006;4.374;2023-07-13T08:51:15;20.50;1.00
17178;DHT22;8704;52.006;4.374;2023-07-13T08:53:49;20.60;1.00
17178;DHT22;8704;52.006;4.374;2023-07-13T08:56:21;20.70;1.00
17178;DHT22;8704;52.006;4.374;2023-07-13T08:58:54;20.80;1.00
17178;DHT22;8704;52.006;4.374;2023-07-13T09:01:30;20.90;1.00
17178;DHT22;8704;52.006;4.374;2023-07-13T09:04:06;21.10;1.00
17178;DHT22;8704;52.006;4.374;2023-07-13T09:06:42;21.30;1.00
17178;DHT22;8704;52.006;4.374;2023-07-13T09:09:23;21.30;1.00
17178;DHT22;8704;52.006;4.374;2023-07-13T09:11:59;21.10;1.00
17178;DHT22;8704;52.006;4.374;2023-07-13T09:14:39;20.90;1.00
17178;DHT22;8704;52.006;4.374;2023-07-13T09:17:14;20.90;1.00
17178;DHT22;8704;52.006;4.374;2023-07-13T09:19:47;21.10;1.00
17178;DHT22;8704;52.006;4.374;2023-07-13T09:22:19;21.20;1.00
17178;DHT22;8704;52.006;4.374;2023-07-13T09:24:54;21.00;1.00
17178;DHT22;8704;52.006;4.374;2023-07-13T09:27:29;21.10;1.00
17178;DHT22;8704;52.006;4.374;2023-07-13T09:30:22;21.10;1.00
17178;DHT22;8704;52.006;4.374;2023-07-13T09:32:53;21.20;1.00
17178;DHT22;8704;52.006;4.374;2023-07-13T09:35:25;21.10;1.00
17178;DHT22;8704;52.006;4.374;2023-07-13T09:37:59;21.20;1.00
17178;DHT22;8704;52.006;4.374;2023-07-13T09:40:34;21.30;1.00
17178;DHT22;8704;52.006;4.374;2023-07-13T09:43:04;21.50;1.00
17178;DHT22;8704;52.006;4.374;2023-07-13T09:45:34;21.60;1.00
17178;DHT22;8704;52.006;4.374;2023-07-13T09:48:10;21.50;1.00
17178;DHT22;8704;52.006;4.374;2023-07-13T09:50:39;21.40;1.00
17178;DHT22;8704;52.006;4.374;2023-07-13T09:53:12;21.30;1.00
17178;DHT22;8704;52.006;4.374;2023-07-13T09:55:43;21.30;1.00
17178;DHT22;8704;52.006;4.374;2023-07-13T09:58:13;21.40;1.00
17178;DHT22;8704;52.006;4.374;2023-07-13T10:00:44;21.40;1.00
17178;DHT22;8704;52.006;4.374;2023-07-13T10:03:24;21.30;1.00
17178;DHT22;8704;52.006;4.374;2023-07-13T10:05:53;21.30;1.00
17178;DHT22;8704;52.006;4.374;2023-07-13T10:08:27;21.20;1.00
17178;DHT22;8704;52.006;4.374;2023-07-13T10:11:01;21.40;1.00
17178;DHT22;8704;52.006;4.374;2023-07-13T10:13:33;21.50;1.00
17178;DHT22;8704;52.006;4.374;2023-07-13T10:16:04;21.70;1.00
17178;DHT22;8704;52.006;4.374;2023-07-13T10:18:40;21.50;1.00
17178;DHT22;8704;52.006;4.374;2023-07-13T10:21:13;21.30;1.00
17178;DHT22;8704;52.006;4.374;2023-07-13T10:23:48;21.20;1.00
17178;DHT22;8704;52.006;4.374;2023-07-13T10:26:19;21.40;1.00
17178;DHT22;8704;52.006;4.374;2023-07-13T10:28:52;21.60;1.00
17178;DHT22;8704;52.006;4.374;2023-07-13T10:31:22;21.50;1.00
17178;DHT22;8704;52.006;4.374;2023-07-13T10:33:53;21.60;1.00
17178;DHT22;8704;52.006;4.374;2023-07-13T10:36:30;21.70;1.00
17178;DHT22;8704;52.006;4.374;2023-07-13T10:39:02;22.00;1.00
17178;DHT22;8704;52.006;4.374;2023-07-13T10:41:35;22.30;1.00
17178;DHT22;8704;52.006;4.374;2023-07-13T10:44:04;22.30;1.00
17178;DHT22;8704;52.006;4.374;2023-07-13T10:46:35;22.10;1.00
17178;DHT22;8704;52.006;4.374;2023-07-13T10:49:06;22.10;1.00
17178;DHT22;8704;52.006;4.374;2023-07-13T10:51:36;22.20;1.00
17178;DHT22;8704;52.006;4.374;2023-07-13T10:54:18;22.30;1.00
17178;DHT22;8704;52.006;4.374;2023-07-13T10:56:54;22.10;1.00
17178;DHT22;8704;52.006;4.374;2023-07-13T10:59:35;22.10;1.00
17178;DHT22;8704;52.006;4.374;2023-07-13T11:02:11;22.00;1.00
17178;DHT22;8704;52.006;4.374;2023-07-13T11:04:43;22.20;1.00
17178;DHT22;8704;52.006;4.374;2023-07-13T11:07:20;22.30;1.00
17178;DHT22;8704;52.006;4.374;2023-07-13T11:09:53;22.50;1.00
17178;DHT22;8704;52.006;4.374;2023-07-13T11:12:49;22.40;1.00
17178;DHT22;8704;52.006;4.374;2023-07-13T11:15:31;22.60;1.00
17178;DHT22;8704;52.006;4.374;2023-07-13T11:18:03;22.90;1.00
17178;DHT22;8704;52.006;4.374;2023-07-13T11:20:40;23.10;1.00
17178;DHT22;8704;52.006;4.374;2023-07-13T11:23:26;23.40;1.00
17178;DHT22;8704;52.006;4.374;2023-07-13T11:25:54;23.50;1.00
17178;DHT22;8704;52.006;4.374;2023-07-13T11:28:25;23.70;1.00
17178;DHT22;8704;52.006;4.374;2023-07-13T11:31:14;23.70;1.00
17178;DHT22;8704;52.006;4.374;2023-07-13T11:33:58;23.60;1.00
17178;DHT22;8704;52.006;4.374;2023-07-13T11:36:36;23.60;1.00
17178;DHT22;8704;52.006;4.374;2023-07-13T11:39:18;23.40;1.00
17178;DHT22;8704;52.006;4.374;2023-07-13T11:41:51;23.10;1.00
17178;DHT22;8704;52.006;4.374;2023-07-13T11:44:21;23.20;1.00
17178;DHT22;8704;52.006;4.374;2023-07-13T11:46:52;23.40;1.00
17178;DHT22;8704;52.006;4.374;2023-07-13T11:49:23;23.70;1.00
17178;DHT22;8704;52.006;4.374;2023-07-13T11:51:55;23.60;1.00
17178;DHT22;8704;52.006;4.374;2023-07-13T11:54:26;23.60;1.00
17178;DHT22;8704;52.006;4.374;2023-07-13T11:56:56;23.70;1.00
17178;DHT22;8704;52.006;4.374;2023-07-13T11:59:28;23.80;1.00
17178;DHT22;8704;52.006;4.374;2023-07-13T12:01:57;23.90;1.00
17178;DHT22;8704;52.006;4.374;2023-07-13T12:04:27;23.80;1.00
17178;DHT22;8704;52.006;4.374;2023-07-13T12:07:03;24.20;1.00
17178;DHT22;8704;52.006;4.374;2023-07-13T12:09:34;24.40;1.00
17178;DHT22;8704;52.006;4.374;2023-07-13T12:12:08;24.40;1.00
17178;DHT22;8704;52.006;4.374;2023-07-13T12:14:38;24.50;1.00
17178;DHT22;8704;52.006;4.374;2023-07-13T12:17:11;24.80;1.00
17178;DHT22;8704;52.006;4.374;2023-07-13T12:19:41;25.10;1.00
17178;DHT22;8704;52.006;4.374;2023-07-13T12:22:13;25.00;1.00
17178;DHT22;8704;52.006;4.374;2023-07-13T12:24:42;25.20;1.00
17178;DHT22;8704;52.006;4.374;2023-07-13T12:27:19;24.90;1.00
17178;DHT22;8704;52.006;4.374;2023-07-13T12:29:52;24.70;1.00
17178;DHT22;8704;52.006;4.374;2023-07-13T12:32:21;24.90;1.00
17178;DHT22;8704;52.006;4.374;2023-07-13T12:34:53;24.80;1.00
17178;DHT22;8704;52.006;4.374;2023-07-13T12:37:24;24.50;1.00
17178;DHT22;8704;52.006;4.374;2023-07-13T12:39:53;24.30;1.00
17178;DHT22;8704;52.006;4.374;2023-07-13T12:42:23;24.60;1.00
17178;DHT22;8704;52.006;4.374;2023-07-13T12:44:57;24.70;1.00
17178;DHT22;8704;52.006;4.374;2023-07-13T12:47:27;24.70;1.00
17178;DHT22;8704;52.006;4.374;2023-07-13T12:49:58;24.80;1.00
17178;DHT22;8704;52.006;4.374;2023-07-13T12:52:32;24.70;1.00
17178;DHT22;8704;52.006;4.374;2023-07-13T12:55:05;24.70;1.00
17178;DHT22;8704;52.006;4.374;2023-07-13T12:57:40;24.40;1.00
17178;DHT22;8704;52.006;4.374;2023-07-13T13:00:22;24.40;1.00
17178;DHT22;8704;52.006;4.374;2023-07-13T13:02:53;24.70;1.00
17178;DHT22;8704;52.006;4.374;2023-07-13T13:05:34;24.80;1.00
17178;DHT22;8704;52.006;4.374;2023-07-13T13:08:09;25.10;1.00
17178;DHT22;8704;52.006;4.374;2023-07-13T13:10:38;25.30;1.00
17178;DHT22;8704;52.006;4.374;2023-07-13T13:13:06;25.10;1.00
17178;DHT22;8704;52.006;4.374;2023-07-13T13:15:35;25.30;1.00
17178;DHT22;8704;52.006;4.374;2023-07-13T13:18:08;25.50;1.00
17178;DHT22;8704;52.006;4.374;2023-07-13T13:20:40;25.70;1.00
17178;DHT22;8704;52.006;4.374;2023-07-13T13:23:12;26.00;1.00
17178;DHT22;8704;52.006;4.374;2023-07-13T13:25:44;26.20;1.00
17178;DHT22;8704;52.006;4.374;2023-07-13T13:28:14;25.90;1.00
17178;DHT22;8704;52.006;4.374;2023-07-13T13:30:45;25.50;1.00
17178;DHT22;8704;52.006;4.374;2023-07-13T13:33:15;25.10;1.00
17178;DHT22;8704;52.006;4.374;2023-07-13T13:35:44;25.20;1.00
17178;DHT22;8704;52.006;4.374;2023-07-13T13:38:15;25.40;1.00
17178;DHT22;8704;52.006;4.374;2023-07-13T13:40:44;25.50;1.00
17178;DHT22;8704;52.006;4.374;2023-07-13T13:43:16;25.70;1.00
17178;DHT22;8704;52.006;4.374;2023-07-13T13:45:45;25.90;1.00
17178;DHT22;8704;52.006;4.374;2023-07-13T13:48:15;26.50;1.00
17178;DHT22;8704;52.006;4.374;2023-07-13T13:50:45;26.10;1.00
17178;DHT22;8704;52.006;4.374;2023-07-13T13:53:15;26.20;1.00
17178;DHT22;8704;52.006;4.374;2023-07-13T13:55:43;26.50;1.00
17178;DHT22;8704;52.006;4.374;2023-07-13T13:58:11;26.60;1.00
17178;DHT22;8704;52.006;4.374;2023-07-13T14:00:39;27.00;1.00
17178;DHT22;8704;52.006;4.374;2023-07-13T14:03:14;27.30;1.00
17178;DHT22;8704;52.006;4.374;2023-07-13T14:05:43;27.50;1.00
17178;DHT22;8704;52.006;4.374;2023-07-13T14:08:15;27.50;1.00
17178;DHT22;8704;52.006;4.374;2023-07-13T14:10:47;27.60;1.00
17178;DHT22;8704;52.006;4.374;2023-07-13T14:13:16;28.00;1.00
17178;DHT22;8704;52.006;4.374;2023-07-13T14:15:45;28.30;1.00
17178;DHT22;8704;52.006;4.374;2023-07-13T14:18:14;28.10;1.00
17178;DHT22;8704;52.006;4.374;2023-07-13T14:20:45;28.20;1.00
17178;DHT22;8704;52.006;4.374;2023-07-13T14:23:16;27.50;1.00
17178;DHT22;8704;52.006;4.374;2023-07-13T14:25:45;28.20;1.00
17178;DHT22;8704;52.006;4.374;2023-07-13T14:28:21;28.20;1.00
17178;DHT22;8704;52.006;4.374;2023-07-13T14:30:49;27.90;1.00
17178;DHT22;8704;52.006;4.374;2023-07-13T14:33:18;27.60;1.00
17178;DHT22;8704;52.006;4.374;2023-07-13T14:35:47;27.10;1.00
17178;DHT22;8704;52.006;4.374;2023-07-13T14:38:19;27.40;1.00
17178;DHT22;8704;52.006;4.374;2023-07-13T14:40:48;27.40;1.00
17178;DHT22;8704;52.006;4.374;2023-07-13T14:43:17;28.00;1.00
17178;DHT22;8704;52.006;4.374;2023-07-13T14:45:47;27.90;1.00
17178;DHT22;8704;52.006;4.374;2023-07-13T14:48:18;28.40;1.00
17178;DHT22;8704;52.006;4.374;2023-07-13T14:50:53;28.50;1.00
17178;DHT22;8704;52.006;4.374;2023-07-13T14:53:24;28.70;1.00
17178;DHT22;8704;52.006;4.374;2023-07-13T14:55:53;28.50;1.00
17178;DHT22;8704;52.006;4.374;2023-07-13T14:58:21;28.50;1.00
17178;DHT22;8704;52.006;4.374;2023-07-13T15:00:50;28.80;1.00
17178;DHT22;8704;52.006;4.374;2023-07-13T15:03:23;29.10;1.00
17178;DHT22;8704;52.006;4.374;2023-07-13T15:05:52;29.30;1.00
17178;DHT22;8704;52.006;4.374;2023-07-13T15:08:22;28.50;1.00
17178;DHT22;8704;52.006;4.374;2023-07-13T15:10:51;28.90;1.00
17178;DHT22;8704;52.006;4.374;2023-07-13T15:13:21;29.00;1.00
17178;DHT22;8704;52.006;4.374;2023-07-13T15:15:51;29.30;1.00
17178;DHT22;8704;52.006;4.374;2023-07-13T15:18:23;29.80;1.00
17178;DHT22;8704;52.006;4.374;2023-07-13T15:20:54;29.80;1.00
17178;DHT22;8704;52.006;4.374;2023-07-13T15:23:26;29.80;1.00
17178;DHT22;8704;52.006;4.374;2023-07-13T15:25:54;29.90;1.00
17178;DHT22;8704;52.006;4.374;2023-07-13T15:28:22;29.90;1.00
17178;DHT22;8704;52.006;4.374;2023-07-13T15:30:50;30.10;1.00
17178;DHT22;8704;52.006;4.374;2023-07-13T15:33:23;30.60;1.00
17178;DHT22;8704;52.006;4.374;2023-07-13T15:35:52;30.50;1.00
17178;DHT22;8704;52.006;4.374;2023-07-13T15:38:23;30.50;1.00
17178;DHT22;8704;52.006;4.374;2023-07-13T15:40:53;30.50;1.00
17178;DHT22;8704;52.006;4.374;2023-07-13T15:43:23;30.40;1.00
17178;DHT22;8704;52.006;4.374;2023-07-13T15:45:51;30.90;1.00
17178;DHT22;8704;52.006;4.374;2023-07-13T15:48:20;31.00;1.00
17178;DHT22;8704;52.006;4.374;2023-07-13T15:50:50;30.90;1.00
17178;DHT22;8704;52.006;4.374;2023-07-13T15:53:22;30.50;1.00
17178;DHT22;8704;52.006;4.374;2023-07-13T15:55:52;29.60;1.00
17178;DHT22;8704;52.006;4.374;2023-07-13T15:58:21;29.60;1.00
17178;DHT22;8704;52.006;4.374;2023-07-13T16:00:49;29.80;1.00
17178;DHT22;8704;52.006;4.374;2023-07-13T16:03:19;29.60;1.00
17178;DHT22;8704;52.006;4.374;2023-07-13T16:05:48;29.80;1.00
17178;DHT22;8704;52.006;4.374;2023-07-13T16:08:22;29.60;1.00
17178;DHT22;8704;52.006;4.374;2023-07-13T16:10:54;29.60;1.00
17178;DHT22;8704;52.006;4.374;2023-07-13T16:13:23;29.40;1.00
17178;DHT22;8704;52.006;4.374;2023-07-13T16:15:52;29.10;1.00
17178;DHT22;8704;52.006;4.374;2023-07-13T16:18:23;29.10;1.00
17178;DHT22;8704;52.006;4.374;2023-07-13T16:20:52;29.50;1.00